Hlavní strana
METAR-TAF:

METAR-TAF

Letiště :

Stigler, Oklahoma, Spojené státy americké

zeměpisná šířka: 35-17-17N, zeměpisná délka: 095-05-38W, výška: 183 m

Aktuální stav počasí

Zpráva byla vytvořena před 26 minutami, v 10:15 UTC
Severozápadní vítr 14 kt s nárazy do 20 kt
Teplota 3°C
Vlhkost vzduchu 75%
Tlak 1016 hPa
Viditelnost: 16.1 km
Zataženo ve výšce 1800 ft

METAR: KGZL 241015Z AUTO 31014G20KT 10SM OVC018 03/M01 A3001 RMK AO2

Čas: 04:41 (10:41 UTC)


TAF: chybějící

Stav a předpovědi počasí z více než 4 000 letišť (zprávy METAR a TAF).

Červené a žluté tečky na mapě představují dostupné meteorologické stanice.

Když kurzor umístíte na tečku, zobrazí se název stanice.

Pak kliknutím zobrazíte stav a předpověď počasí.

Chcete-li změnit mapu, kliknutím na zelené tlačítko se znaménkem +mapu přiblížíte, kliknutím na zelené tlačítko se znaménkem – mapu oddálíte a kliknutím na zelené šipky přejdete na sousední mapy.


METAR-TAF: